Time;durP1;ratioP1;P1;durP2;ratioP2;P2;SDS_P1;SDS_P2;PMS_P1;PMS_P2;Temp;Humidity;BMP_temperature;BMP_pressure;BME280_temperature;BME280_humidity;BME280_pressure;Samples;Min_cycle;Max_cycle;Signal;HPM_P1;HPM_P2
2023/07/02 00:04:10;;;;;;;10.70;4.80;;;;;;;20.34;70.95;99245.31;219795;1265;97502;-85
2023/07/02 00:09:11;;;;;;;8.50;4.60;;;;;;;20.28;71.52;99243.88;219308;1265;140545;-85
2023/07/02 00:14:12;;;;;;;9.70;4.60;;;;;;;20.20;71.90;99247.53;219749;1265;138358;-85
2023/07/02 00:19:16;;;;;;;9.50;4.40;;;;;;;20.12;72.91;99249.71;219469;1265;140641;-85
2023/07/02 00:24:16;;;;;;;8.50;4.40;;;;;;;20.02;74.24;99245.54;220506;1265;138948;-85
2023/07/02 00:29:17;;;;;;;7.10;4.00;;;;;;;19.93;74.83;99239.10;220362;1269;140187;-86
2023/07/02 00:34:18;;;;;;;9.20;4.40;;;;;;;19.89;75.80;99237.11;220945;1265;98002;-85
2023/07/02 00:39:19;;;;;;;8.60;4.50;;;;;;;19.82;76.45;99235.45;220357;1266;140372;-86
2023/07/02 00:44:19;;;;;;;8.40;4.30;;;;;;;19.78;76.93;99226.24;220926;1265;139168;-85
2023/07/02 00:49:20;;;;;;;9.60;4.40;;;;;;;19.75;77.28;99224.38;220218;1265;140682;-86
2023/07/02 00:54:20;;;;;;;8.90;4.20;;;;;;;19.71;77.43;99220.48;220753;1265;139127;-86
2023/07/02 00:59:21;;;;;;;10.20;4.70;;;;;;;19.64;77.52;99219.44;220094;1265;140641;-84
2023/07/02 01:04:27;;;;;;;7.80;4.50;;;;;;;19.58;78.62;99207.75;222004;1265;96404;-85
2023/07/02 01:09:27;;;;;;;9.40;4.80;;;;;;;19.47;80.04;99203.87;222955;1265;140009;-85
2023/07/02 01:14:39;;;;;;;8.50;4.50;;;;;;;19.35;80.95;99201.84;222442;1265;138543;-84
2023/07/02 01:19:44;;;;;;;7.60;3.50;;;;;;;19.25;83.10;99202.21;219140;1270;140788;-86
2023/07/02 01:24:48;;;;;;;7.20;3.40;;;;;;;19.11;84.92;99199.69;219761;1265;138336;-85
2023/07/02 01:29:53;;;;;;;5.80;2.80;;;;;;;18.98;86.39;99201.70;219124;1265;141328;-85
2023/07/02 01:34:53;;;;;;;4.70;2.40;;;;;;;18.89;87.46;99196.11;219683;1266;138270;-84
2023/07/02 01:39:54;;;;;;;5.00;2.40;;;;;;;18.80;89.15;99192.83;219299;1268;140588;-85
2023/07/02 01:44:54;;;;;;;6.70;2.60;;;;;;;18.71;91.03;99186.20;219801;1266;139327;-84
2023/07/02 01:49:55;;;;;;;4.10;2.10;;;;;;;18.60;92.47;99185.66;219286;1266;141305;-84
2023/07/02 01:54:55;;;;;;;4.80;2.20;;;;;;;18.54;92.91;99185.86;219755;1265;139652;-85
2023/07/02 01:59:56;;;;;;;3.50;2.10;;;;;;;18.50;93.67;99194.15;219393;1268;141445;-84
2023/07/02 02:04:56;;;;;;;4.10;2.00;;;;;;;18.47;93.90;99192.50;220079;1265;139846;-85
2023/07/02 02:09:57;;;;;;;8.00;2.90;;;;;;;18.45;94.51;99198.95;219501;1265;140566;-85
2023/07/02 02:14:57;;;;;;;5.10;2.50;;;;;;;18.42;95.19;99197.45;220678;1268;138558;-84
2023/07/02 02:19:57;;;;;;;4.30;2.50;;;;;;;18.40;96.03;99201.29;220153;1265;140508;-85
2023/07/02 02:24:58;;;;;;;5.30;2.50;;;;;;;18.36;96.66;99198.43;220731;1266;138358;-84
2023/07/02 02:29:58;;;;;;;8.10;2.70;;;;;;;18.33;97.63;99200.39;220228;1266;141470;-84
2023/07/02 02:34:59;;;;;;;6.00;2.80;;;;;;;18.30;98.38;99196.48;220608;1266;138595;-85
2023/07/02 02:39:59;;;;;;;6.90;3.10;;;;;;;18.29;98.72;99196.46;220318;1266;140764;-85
2023/07/02 02:45:00;;;;;;;4.20;2.60;;;;;;;18.27;99.47;99196.54;220976;1265;139281;-84
2023/07/02 02:50:00;;;;;;;5.90;2.80;;;;;;;18.24;99.90;99197.55;220369;1266;140325;-85
2023/07/02 02:55:00;;;;;;;5.20;2.70;;;;;;;18.25;99.75;99199.66;223268;1265;138483;-86
2023/07/02 03:00:01;;;;;;;5.90;2.80;;;;;;;18.26;99.86;99201.77;222968;1265;140267;-86
2023/07/02 03:05:02;;;;;;;7.90;3.00;;;;;;;18.26;100.00;99196.27;220180;1266;138628;-87
2023/07/02 03:10:02;;;;;;;5.50;2.90;;;;;;;18.26;100.00;99198.89;219145;1269;142598;-83
2023/07/02 03:15:03;;;;;;;5.20;3.00;;;;;;;18.27;100.00;99194.65;219692;1268;139233;-84
2023/07/02 03:20:04;;;;;;;7.00;3.00;;;;;;;18.27;100.00;99192.23;219149;1266;140459;-85
2023/07/02 03:25:05;;;;;;;9.00;3.40;;;;;;;18.27;100.00;99186.52;219690;1265;138875;-85
2023/07/02 03:30:06;;;;;;;5.30;3.00;;;;;;;18.30;100.00;99189.52;219186;1265;141867;-84
2023/07/02 03:35:07;;;;;;;5.30;3.10;;;;;;;18.33;100.00;99199.10;219738;1266;139271;-85
2023/07/02 03:40:08;;;;;;;4.40;2.80;;;;;;;18.37;100.00;99202.30;219454;1268;140367;-85
2023/07/02 03:45:08;;;;;;;6.90;3.50;;;;;;;18.39;100.00;99208.98;219689;1265;138618;-85
2023/07/02 03:50:09;;;;;;;7.60;3.30;;;;;;;18.41;100.00;99212.63;219227;1265;140669;-84
2023/07/02 03:55:09;;;;;;;5.70;3.60;;;;;;;18.45;100.00;99215.36;219810;1268;139104;-83
2023/07/02 04:00:11;;;;;;;6.00;3.50;;;;;;;18.47;100.00;99217.66;220074;1265;140867;-84
2023/07/02 04:05:11;;;;;;;7.20;3.50;;;;;;;18.49;100.00;99223.86;221033;1266;138767;-85
2023/07/02 04:10:12;;;;;;;6.40;3.20;;;;;;;18.48;100.00;99223.48;220176;1266;140631;-84
2023/07/02 04:15:12;;;;;;;5.60;3.20;;;;;;;18.51;100.00;99224.83;220765;1265;139081;-85
2023/07/02 04:20:13;;;;;;;6.20;3.70;;;;;;;18.53;100.00;99230.47;220028;1265;142474;-85
2023/07/02 04:25:17;;;;;;;5.50;3.20;;;;;;;18.54;100.00;99233.05;220597;1266;139321;-86
2023/07/02 04:30:18;;;;;;;6.60;3.10;;;;;;;18.58;100.00;99237.77;220175;1265;141367;-83
2023/07/02 04:35:19;;;;;;;5.20;3.10;;;;;;;18.63;100.00;99245.65;220863;1266;138650;-85
2023/07/02 04:40:19;;;;;;;5.00;2.70;;;;;;;18.70;100.00;99250.56;221636;1265;140640;-85
2023/07/02 04:45:19;;;;;;;5.60;2.90;;;;;;;18.76;100.00;99247.83;223577;1265;138605;-85
2023/07/02 04:50:20;;;;;;;6.80;2.90;;;;;;;18.84;100.00;99261.14;222024;1268;139547;-85
2023/07/02 04:55:20;;;;;;;5.10;2.60;;;;;;;18.90;100.00;99257.88;219677;1268;138703;-85
2023/07/02 05:00:22;;;;;;;4.90;2.70;;;;;;;18.97;100.00;99266.96;219068;1266;141001;-85
2023/07/02 05:05:22;;;;;;;4.00;2.10;;;;;;;19.05;99.90;99269.96;219645;1270;139036;-85
2023/07/02 05:10:23;;;;;;;5.80;2.30;;;;;;;19.10;99.14;99276.91;219134;1266;140428;-85
2023/07/02 05:15:24;;;;;;;4.50;2.60;;;;;;;19.16;98.57;99277.38;219702;1265;138815;-85
2023/07/02 05:20:25;;;;;;;5.30;2.40;;;;;;;19.21;98.29;99280.64;219161;1265;141330;-85
2023/07/02 05:25:26;;;;;;;6.00;2.30;;;;;;;19.27;97.97;99286.46;219784;1266;138788;-85
2023/07/02 05:30:26;;;;;;;3.70;1.90;;;;;;;19.32;97.37;99286.96;219326;1265;140343;-85
2023/07/02 05:35:27;;;;;;;5.40;2.60;;;;;;;19.37;97.27;99284.52;220039;1265;138912;-85
2023/07/02 05:40:27;;;;;;;3.40;2.10;;;;;;;19.39;96.55;99289.85;219385;1271;140595;-85
2023/07/02 05:45:28;;;;;;;5.10;2.10;;;;;;;19.40;96.15;99295.27;220436;1265;137914;-84
2023/07/02 05:50:29;;;;;;;3.50;2.10;;;;;;;19.47;95.65;99301.42;220425;1268;140443;-85
2023/07/02 05:55:29;;;;;;;4.10;2.30;;;;;;;19.50;94.93;99307.23;220822;1268;138433;-85
2023/07/02 06:00:30;;;;;;;5.50;2.60;;;;;;;19.51;93.98;99314.30;220515;1265;140400;-83
2023/07/02 06:05:30;;;;;;;4.70;2.00;;;;;;;19.55;93.24;99312.84;221159;1266;138952;-85
2023/07/02 06:10:31;;;;;;;4.20;2.40;;;;;;;19.69;92.68;99310.47;220340;1265;140117;-84
2023/07/02 06:15:31;;;;;;;5.50;1.90;;;;;;;19.81;90.44;99319.59;221255;1266;95370;-83
2023/07/02 06:20:32;;;;;;;5.50;2.40;;;;;;;19.93;87.79;99323.11;220841;1266;140806;-84
2023/07/02 06:25:32;;;;;;;6.00;1.80;;;;;;;20.12;86.92;99321.94;221384;1264;139655;-84
2023/07/02 06:30:33;;;;;;;3.10;1.90;;;;;;;20.34;83.63;99326.48;222639;1265;140379;-85
2023/07/02 06:35:33;;;;;;;3.40;1.90;;;;;;;20.52;83.16;99332.09;223439;1265;139655;-83
2023/07/02 06:40:34;;;;;;;4.00;2.20;;;;;;;20.72;83.24;99333.30;220102;1269;140112;-85
2023/07/02 06:45:35;;;;;;;5.80;2.10;;;;;;;20.96;82.10;99340.71;219802;1266;96691;-85
2023/07/02 06:50:35;;;;;;;4.40;2.30;;;;;;;21.08;80.44;99354.23;219420;1270;139776;-84
2023/07/02 06:55:36;;;;;;;3.70;2.20;;;;;;;21.17;78.06;99349.36;219998;1268;138611;-84
2023/07/02 07:00:36;;;;;;;4.40;2.60;;;;;;;21.29;77.24;99348.81;219258;1266;140677;-84
2023/07/02 07:05:36;;;;;;;5.00;2.20;;;;;;;21.41;77.60;99350.61;219707;1266;138990;-83
2023/07/02 07:10:37;;;;;;;6.70;2.30;;;;;;;21.59;76.69;99346.09;219397;1268;140738;-87
2023/07/02 07:15:38;;;;;;;4.80;2.20;;;;;;;21.81;75.12;99350.17;220000;1266;97515;-83
2023/07/02 07:20:40;;;;;;;10.30;2.40;;;;;;;21.90;73.28;99360.54;219667;1266;140490;-83
2023/07/02 07:25:40;;;;;;;4.60;2.30;;;;;;;21.92;71.10;99367.61;220427;1266;139075;-85
2023/07/02 07:30:42;;;;;;;4.40;2.10;;;;;;;21.90;71.46;99363.19;220242;1266;139880;-84
2023/07/02 07:35:42;;;;;;;4.30;2.00;;;;;;;22.07;72.43;99368.92;221107;1265;137567;-85
2023/07/02 07:40:43;;;;;;;3.90;2.30;;;;;;;22.36;72.02;99362.26;220485;1266;142178;-83
2023/07/02 07:45:43;;;;;;;6.90;2.80;;;;;;;22.61;70.12;99353.14;221442;1266;96561;-85
2023/07/02 07:50:44;;;;;;;5.40;2.60;;;;;;;22.92;68.67;99359.38;220322;1265;140419;-85
2023/07/02 07:55:44;;;;;;;3.60;2.00;;;;;;;23.22;65.62;99365.12;220895;1266;138336;-83
2023/07/02 08:00:45;;;;;;;4.90;1.80;;;;;;;23.55;64.90;99360.95;220310;1266;139802;-90
2023/07/02 08:05:45;;;;;;;3.90;2.20;;;;;;;24.19;65.01;99364.84;221048;1266;138161;-88
2023/07/02 08:10:46;;;;;;;5.00;2.30;;;;;;;24.76;60.71;99374.65;220110;1265;139660;-88
2023/07/02 08:15:47;;;;;;;5.80;2.10;;;;;;;25.21;59.24;99373.38;220946;1266;97381;-87
2023/07/02 08:20:48;;;;;;;6.40;2.30;;;;;;;25.60;58.70;99367.45;220211;1265;139014;-90
2023/07/02 08:25:48;;;;;;;6.10;2.50;;;;;;;26.08;57.41;99373.88;220754;1266;138189;-91
2023/07/02 08:30:49;;;;;;;4.60;2.00;;;;;;;26.71;56.94;99380.88;220303;1266;139120;-91
2023/07/02 08:35:49;;;;;;;5.40;2.50;;;;;;;27.41;52.49;99375.13;220688;1265;138373;-92
2023/07/02 08:40:50;;;;;;;4.30;2.20;;;;;;;27.55;50.83;99382.77;220128;1268;141406;-91
2023/07/02 08:45:51;;;;;;;4.80;2.10;;;;;;;27.76;49.22;99383.23;220598;1270;105594;-88
2023/07/02 08:50:52;;;;;;;4.70;2.20;;;;;;;28.09;47.24;99387.08;219971;1271;139906;-90
2023/07/02 08:55:52;;;;;;;8.50;2.40;;;;;;;28.22;45.98;99386.70;220581;1267;137438;-88
2023/07/02 09:01:08;;;;;;;5.60;2.40;;;;;;;28.38;44.67;99378.77;219958;1266;140133;-89
2023/07/02 09:06:10;;;;;;;5.50;2.40;;;;;;;28.62;45.60;99380.10;220560;1266;138235;-87
2023/07/02 09:11:16;;;;;;;3.80;2.10;;;;;;;28.94;45.55;99383.02;220392;1268;140223;-91
2023/07/02 09:16:27;;;;;;;4.30;2.10;;;;;;;29.31;43.64;99378.75;220802;1268;103952;-90
2023/07/02 09:21:48;;;;;;;3.80;2.00;;;;;;;29.85;44.66;99375.98;219924;1269;139217;-89
2023/07/02 09:26:54;;;;;;;4.40;2.10;;;;;;;30.52;42.90;99382.08;220720;1264;137992;-90
2023/07/02 09:31:56;;;;;;;4.90;2.20;;;;;;;30.86;41.67;99385.97;220317;1268;139406;-90
2023/07/02 09:37:01;;;;;;;6.80;2.20;;;;;;;30.70;40.59;99391.17;220852;1268;138576;-86
2023/07/02 09:42:08;;;;;;;3.30;1.80;;;;;;;30.51;39.72;99387.73;220305;1268;139549;-86
2023/07/02 09:47:10;;;;;;;5.40;2.10;;;;;;;30.61;40.29;99386.60;220774;1269;138534;-89
2023/07/02 09:52:14;;;;;;;4.00;2.00;;;;;;;30.71;38.62;99390.59;220297;1269;139476;-93
2023/07/02 09:57:14;;;;;;;3.80;1.70;;;;;;;30.70;40.28;99385.31;220583;1267;137987;-90
2023/07/02 10:02:15;;;;;;;4.10;1.90;;;;;;;31.49;39.81;99387.54;220234;1268;139433;-88
2023/07/02 10:07:27;;;;;;;5.00;2.40;;;;;;;32.00;38.77;99384.90;220762;1266;138984;-87
2023/07/02 10:12:29;;;;;;;4.10;2.10;;;;;;;32.15;37.73;99390.60;220080;1268;139728;-88
2023/07/02 10:17:31;;;;;;;6.10;2.20;;;;;;;31.92;35.95;99389.63;220982;1268;137810;-86
2023/07/02 10:22:52;;;;;;;5.60;2.10;;;;;;;31.54;35.22;99381.41;220711;1267;139115;-91
2023/07/02 10:27:53;;;;;;;5.10;1.90;;;;;;;31.11;36.05;99393.77;221112;1267;95429;-88
2023/07/02 10:32:54;;;;;;;3.00;1.50;;;;;;;30.61;36.20;99389.60;220711;1270;139759;-90
2023/07/02 10:37:55;;;;;;;3.40;1.90;;;;;;;30.45;37.47;99384.20;221256;1268;307611;-90
2023/07/02 10:42:56;;;;;;;7.80;2.10;;;;;;;30.75;36.95;99383.67;220589;1266;140724;-89
2023/07/02 10:47:56;;;;;;;3.70;1.90;;;;;;;30.68;36.11;99384.86;221233;1267;138922;-86
2023/07/02 10:52:56;;;;;;;5.10;1.90;;;;;;;30.52;36.04;99386.62;220566;1269;139597;-89
2023/07/02 10:58:05;;;;;;;3.60;1.90;;;;;;;30.57;35.90;99379.37;221024;1267;97970;-91
2023/07/02 11:03:16;;;;;;;2.60;1.90;;;;;;;30.66;35.69;99379.59;220627;1265;139450;-90
2023/07/02 11:08:17;;;;;;;4.00;2.10;;;;;;;30.70;35.71;99381.20;221017;1267;137673;-86
2023/07/02 11:13:21;;;;;;;19.10;3.00;;;;;;;30.50;36.13;99384.84;220535;1269;139797;-83
2023/07/02 11:18:21;;;;;;;5.50;1.80;;;;;;;30.26;35.70;99389.00;221119;1266;138797;-86
2023/07/02 11:23:26;;;;;;;4.50;2.10;;;;;;;29.76;35.27;99386.27;220732;1270;139764;-82
2023/07/02 11:28:28;;;;;;;9.20;2.50;;;;;;;29.15;36.41;99393.88;221242;1269;106812;-89
2023/07/02 11:33:40;;;;;;;4.80;1.80;;;;;;;28.99;37.37;99393.88;220443;1267;141266;-88
2023/07/02 11:38:41;;;;;;;5.10;2.20;;;;;;;28.97;36.88;99394.86;220870;1269;137705;-85
2023/07/02 11:43:41;;;;;;;6.70;2.00;;;;;;;28.60;37.56;99394.27;220320;1271;140611;-89
2023/07/02 11:48:42;;;;;;;4.40;2.30;;;;;;;28.83;37.77;99401.39;221276;1269;138238;-87
2023/07/02 11:53:43;;;;;;;4.60;2.40;;;;;;;28.96;36.48;99403.83;220702;1268;139342;-87
2023/07/02 11:58:43;;;;;;;6.90;2.40;;;;;;;29.00;36.92;99406.85;221160;1266;137929;-88
2023/07/02 12:03:45;;;;;;;4.60;2.60;;;;;;;28.99;37.64;99411.90;221008;1268;139411;-83
2023/07/02 12:08:45;;;;;;;5.20;2.70;;;;;;;28.96;36.61;99412.73;222116;1270;138323;-88
2023/07/02 12:13:46;;;;;;;5.10;2.60;;;;;;;28.68;37.86;99420.48;220458;1268;139477;-88
2023/07/02 12:18:46;;;;;;;5.20;2.40;;;;;;;28.34;38.17;99431.27;220948;1270;138672;-88
2023/07/02 12:23:47;;;;;;;5.60;2.40;;;;;;;27.88;37.98;99440.78;220477;1270;139761;-87
2023/07/02 12:28:47;;;;;;;5.60;2.30;;;;;;;27.34;38.42;99448.36;221128;1268;138789;-86
2023/07/02 12:33:48;;;;;;;7.10;2.40;;;;;;;26.97;38.73;99453.77;220742;1269;139183;-89
2023/07/02 12:38:48;;;;;;;8.70;3.20;;;;;;;26.69;40.52;99461.05;220719;1267;137691;-88
2023/07/02 12:43:49;;;;;;;5.50;2.20;;;;;;;26.60;40.62;99462.02;220382;1268;140761;-92
2023/07/02 12:48:49;;;;;;;5.30;2.20;;;;;;;26.53;40.87;99468.63;220696;1266;137730;-86
2023/07/02 12:53:50;;;;;;;4.90;2.30;;;;;;;26.32;40.51;99483.21;220234;1269;139546;-87
2023/07/02 12:58:51;;;;;;;9.60;2.40;;;;;;;26.22;40.85;99483.98;220802;1267;138820;-83
2023/07/02 13:03:51;;;;;;;6.40;2.30;;;;;;;26.23;41.37;99486.88;221052;1267;153726;-86
2023/07/02 13:08:52;;;;;;;5.90;2.30;;;;;;;26.08;41.30;99489.26;221127;1266;139758;-84
2023/07/02 13:13:53;;;;;;;6.00;2.30;;;;;;;25.86;41.41;99484.71;221232;1266;137729;-82
2023/07/02 13:18:56;;;;;;;8.00;2.20;;;;;;;25.66;41.81;99481.84;220523;1269;139472;-83
2023/07/02 13:23:57;;;;;;;7.00;2.50;;;;;;;25.69;41.49;99486.79;220720;1267;137742;-83
2023/07/02 13:28:57;;;;;;;5.80;2.50;;;;;;;25.55;41.26;99487.66;220127;1266;139724;-83
2023/07/02 13:33:58;;;;;;;7.10;3.00;;;;;;;25.28;41.07;99484.21;220630;1265;98006;-84
2023/07/02 13:38:58;;;;;;;5.50;2.40;;;;;;;25.10;41.44;99490.84;220036;1270;140042;-83
2023/07/02 13:43:59;;;;;;;8.90;3.00;;;;;;;25.02;41.81;99496.77;220551;1265;137651;-86
2023/07/02 13:48:59;;;;;;;8.30;3.00;;;;;;;24.84;41.29;99496.82;220261;1269;140661;-83
2023/07/02 13:54:00;;;;;;;6.90;3.00;;;;;;;24.63;41.61;99497.72;220879;1269;137799;-84
2023/07/02 13:59:01;;;;;;;7.10;2.90;;;;;;;24.70;42.36;99489.20;220276;1265;140175;-82
2023/07/02 14:04:03;;;;;;;9.60;3.50;;;;;;;24.77;42.21;99490.08;220865;1265;97882;-83
2023/07/02 14:09:05;;;;;;;10.60;3.80;;;;;;;24.65;41.81;99498.92;220196;1266;139989;-83
2023/07/02 14:14:07;;;;;;;8.70;3.10;;;;;;;24.72;42.29;99494.64;220706;1265;138269;-85
2023/07/02 14:19:07;;;;;;;8.20;3.50;;;;;;;24.81;42.17;99500.84;220200;1265;140099;-86
2023/07/02 14:24:09;;;;;;;9.70;4.10;;;;;;;24.96;42.73;99506.67;220618;1269;138737;-87
2023/07/02 14:29:09;;;;;;;12.70;4.70;;;;;;;25.05;42.09;99502.51;220152;1265;141622;-84
2023/07/02 14:34:10;;;;;;;9.40;4.20;;;;;;;25.14;41.89;99505.72;220812;1266;98713;-85
2023/07/02 14:39:10;;;;;;;7.60;4.00;;;;;;;25.14;41.78;99505.48;220236;1266;139262;-85
2023/07/02 14:44:10;;;;;;;11.40;4.40;;;;;;;25.16;41.62;99505.43;220924;1266;137902;-87
2023/07/02 14:49:11;;;;;;;12.60;4.40;;;;;;;25.22;42.73;99499.81;220239;1266;141367;-86
2023/07/02 14:54:12;;;;;;;14.10;4.60;;;;;;;25.47;42.37;99496.66;220820;1266;138524;-86
2023/07/02 14:59:13;;;;;;;11.10;4.70;;;;;;;25.49;41.02;99494.27;220233;1269;139952;-83
2023/07/02 15:04:14;;;;;;;12.50;4.80;;;;;;;25.46;41.45;99493.22;220775;1265;97927;-87
2023/07/02 15:09:14;;;;;;;14.30;4.90;;;;;;;25.38;42.15;99501.51;219958;1267;139782;-87
2023/07/02 15:14:15;;;;;;;11.70;5.00;;;;;;;25.20;40.92;99502.96;220610;1265;137998;-86
2023/07/02 15:19:16;;;;;;;13.60;5.50;;;;;;;24.97;41.82;99505.88;219945;1266;140124;-85
2023/07/02 15:24:16;;;;;;;11.60;5.50;;;;;;;24.87;42.40;99510.82;220476;1266;138193;-86
2023/07/02 15:29:16;;;;;;;13.30;5.20;;;;;;;24.80;43.02;99512.02;219861;1266;142398;-85
2023/07/02 15:34:18;;;;;;;12.20;5.40;;;;;;;24.83;43.52;99517.94;220590;1265;99218;-85
2023/07/02 15:39:22;;;;;;;14.30;4.80;;;;;;;24.74;43.80;99517.60;220258;1265;139770;-87
2023/07/02 15:44:23;;;;;;;11.50;5.20;;;;;;;24.60;44.25;99524.33;220595;1266;137796;-86
2023/07/02 15:49:25;;;;;;;12.60;5.50;;;;;;;24.50;44.31;99518.35;220036;1267;138867;-87
2023/07/02 15:54:25;;;;;;;12.60;5.30;;;;;;;24.41;44.57;99513.93;220535;1268;138048;-86
2023/07/02 15:59:26;;;;;;;10.70;4.80;;;;;;;24.31;45.03;99511.67;220012;1266;139492;-86
2023/07/02 16:04:26;;;;;;;12.40;5.30;;;;;;;24.21;44.97;99507.95;220944;1265;97724;-85
2023/07/02 16:09:27;;;;;;;12.10;5.20;;;;;;;23.97;44.15;99513.70;220114;1265;140002;-83
2023/07/02 16:14:27;;;;;;;16.40;6.50;;;;;;;23.80;43.95;99525.99;220651;1266;137813;-83
2023/07/02 16:19:28;;;;;;;16.30;6.40;;;;;;;23.72;43.93;99525.27;220132;1265;140101;-85
2023/07/02 16:24:31;;;;;;;15.80;5.80;;;;;;;23.60;43.72;99529.81;220557;1268;139107;-85
2023/07/02 16:29:32;;;;;;;13.10;5.30;;;;;;;23.51;43.80;99527.27;219971;1265;140199;-87
2023/07/02 16:34:32;;;;;;;16.60;5.70;;;;;;;23.45;42.10;99533.87;220514;1265;138373;-87
2023/07/02 16:39:33;;;;;;;15.40;6.40;;;;;;;23.37;40.89;99534.09;220088;1266;140594;-85
2023/07/02 16:44:35;;;;;;;14.30;5.30;;;;;;;23.29;41.38;99545.48;220741;1266;138003;-85
2023/07/02 16:49:36;;;;;;;14.80;5.70;;;;;;;23.23;40.23;99549.05;220265;1266;143409;-86
2023/07/02 16:54:37;;;;;;;15.50;6.10;;;;;;;23.10;41.21;99544.97;220619;1265;138140;-84
2023/07/02 16:59:38;;;;;;;14.40;5.90;;;;;;;23.00;42.23;99555.29;220117;1265;138646;-85
2023/07/02 17:04:39;;;;;;;14.80;6.00;;;;;;;22.94;42.61;99558.14;220826;1266;138699;-85
2023/07/02 17:09:40;;;;;;;13.50;6.00;;;;;;;22.83;42.73;99567.66;220612;1264;139919;-88
2023/07/02 17:14:51;;;;;;;12.30;5.50;;;;;;;22.72;42.29;99571.31;221006;1266;138371;-86
2023/07/02 17:19:54;;;;;;;14.10;6.00;;;;;;;22.58;42.39;99578.67;220478;1266;140477;-85
2023/07/02 17:24:56;;;;;;;15.70;6.00;;;;;;;22.41;42.52;99583.39;220780;1265;137903;-87
2023/07/02 17:29:59;;;;;;;12.50;5.60;;;;;;;22.22;43.16;99579.69;220185;1265;140337;-86
2023/07/02 17:35:00;;;;;;;13.70;5.90;;;;;;;22.10;43.57;99582.94;220399;1269;138488;-88
2023/07/02 17:40:00;;;;;;;16.10;6.10;;;;;;;21.94;43.97;99589.23;220233;1265;140434;-85
2023/07/02 17:45:01;;;;;;;15.80;6.80;;;;;;;21.75;43.45;99589.63;220626;1265;138427;-86
2023/07/02 17:50:01;;;;;;;18.10;6.60;;;;;;;21.61;44.04;99595.93;220015;1265;140275;-88
2023/07/02 17:55:02;;;;;;;15.30;6.30;;;;;;;21.51;44.37;99597.85;220420;1265;138409;-86
2023/07/02 18:00:07;;;;;;;14.80;6.80;;;;;;;21.39;44.24;99602.34;220135;1265;140021;-88
2023/07/02 18:05:08;;;;;;;21.80;7.30;;;;;;;21.28;44.68;99603.38;220698;1265;139195;-89
2023/07/02 18:10:09;;;;;;;15.20;6.10;;;;;;;21.17;44.92;99605.52;220362;1265;140189;-91
2023/07/02 18:15:10;;;;;;;14.80;6.10;;;;;;;21.05;44.72;99609.23;220736;1266;138346;-87
2023/07/02 18:20:14;;;;;;;16.10;6.90;;;;;;;20.93;45.01;99613.51;220101;1265;139771;-88
2023/07/02 18:25:15;;;;;;;15.60;6.20;;;;;;;20.81;44.87;99618.74;220448;1265;138980;-89
2023/07/02 18:30:15;;;;;;;16.30;6.20;;;;;;;20.70;45.35;99622.16;220224;1265;140462;-88
2023/07/02 18:35:16;;;;;;;14.80;6.30;;;;;;;20.59;45.64;99625.85;220953;1266;138480;-90
2023/07/02 18:40:21;;;;;;;14.40;5.80;;;;;;;20.47;46.07;99633.16;220241;1265;139388;-89
2023/07/02 18:45:22;;;;;;;18.10;6.70;;;;;;;20.32;46.12;99637.53;220706;1268;137805;-89
2023/07/02 18:50:23;;;;;;;13.80;6.30;;;;;;;20.20;46.69;99639.05;220054;1265;141361;-87
2023/07/02 18:55:23;;;;;;;13.40;5.80;;;;;;;20.10;47.00;99651.36;221177;1266;138688;-89
2023/07/02 19:00:24;;;;;;;14.00;6.70;;;;;;;19.96;47.54;99656.77;220586;1266;140113;-90
2023/07/02 19:05:24;;;;;;;15.50;6.40;;;;;;;19.84;48.67;99662.33;221083;1264;138946;-89
2023/07/02 19:10:25;;;;;;;14.20;6.30;;;;;;;19.69;47.92;99669.78;220851;1265;140344;-88
2023/07/02 19:15:26;;;;;;;13.00;5.50;;;;;;;19.54;48.67;99674.73;221521;1266;138267;-87
2023/07/02 19:20:27;;;;;;;19.00;7.20;;;;;;;19.41;49.41;99684.16;220429;1265;139898;-87
2023/07/02 19:25:28;;;;;;;15.80;6.60;;;;;;;19.24;50.35;99687.08;221090;1265;138071;-87
2023/07/02 19:30:28;;;;;;;15.30;6.60;;;;;;;19.12;50.87;99692.19;220079;1265;141101;-88
2023/07/02 19:35:32;;;;;;;11.80;5.30;;;;;;;18.97;51.67;99695.52;220357;1266;139187;-89
2023/07/02 19:40:33;;;;;;;19.10;6.20;;;;;;;18.81;52.32;99700.20;219719;1265;141390;-88
2023/07/02 19:45:35;;;;;;;14.00;6.60;;;;;;;18.64;52.90;99705.95;220290;1266;97846;-88
2023/07/02 19:50:36;;;;;;;13.40;5.40;;;;;;;18.48;53.47;99712.14;219340;1270;139819;-87
2023/07/02 19:55:38;;;;;;;12.70;6.10;;;;;;;18.32;54.42;99710.24;220111;1268;138845;-87
2023/07/02 20:00:41;;;;;;;14.80;6.00;;;;;;;18.16;55.14;99717.35;219345;1267;140546;-86
2023/07/02 20:05:42;;;;;;;13.70;5.70;;;;;;;17.99;55.41;99719.47;219769;1266;137965;-84
2023/07/02 20:10:43;;;;;;;12.50;5.40;;;;;;;17.89;55.70;99727.79;219349;1266;140063;-84
2023/07/02 20:15:43;;;;;;;15.20;6.40;;;;;;;17.78;56.16;99731.08;220019;1265;97966;-83
2023/07/02 20:20:44;;;;;;;20.90;6.00;;;;;;;17.64;56.95;99736.64;219425;1268;140617;-82
2023/07/02 20:25:45;;;;;;;13.10;5.70;;;;;;;17.49;57.51;99745.27;219894;1265;137960;-83
2023/07/02 20:30:46;;;;;;;16.60;6.70;;;;;;;17.34;58.34;99740.80;219290;1265;141209;-84
2023/07/02 20:35:46;;;;;;;17.60;6.50;;;;;;;17.21;58.82;99742.02;219916;1265;138004;-84
2023/07/02 20:41:00;;;;;;;17.80;6.70;;;;;;;17.09;59.72;99747.92;219427;1269;140647;-84
2023/07/02 20:46:01;;;;;;;16.70;6.50;;;;;;;16.95;60.12;99751.30;220032;1268;108398;-86
2023/07/02 20:51:02;;;;;;;16.50;6.30;;;;;;;16.83;60.32;99747.40;219129;1266;140603;-85
2023/07/02 20:56:03;;;;;;;13.00;6.10;;;;;;;16.72;60.96;99749.27;219831;1266;137902;-84
2023/07/02 21:01:05;;;;;;;12.20;5.90;;;;;;;16.64;61.38;99753.50;219248;1268;139803;-84
2023/07/02 21:06:07;;;;;;;15.60;6.00;;;;;;;16.53;62.33;99755.05;219977;1266;138015;-81
2023/07/02 21:11:08;;;;;;;14.00;5.90;;;;;;;16.43;63.50;99759.64;219302;1266;139883;-81
2023/07/02 21:16:08;;;;;;;12.70;5.60;;;;;;;16.33;63.54;99769.14;220094;1265;99174;-80
2023/07/02 21:21:09;;;;;;;13.50;6.10;;;;;;;16.22;63.97;99775.02;219254;1268;139762;-80
2023/07/02 21:26:12;;;;;;;13.80;6.50;;;;;;;16.12;64.15;99780.15;219845;1266;137740;-81
2023/07/02 21:31:14;;;;;;;17.00;6.10;;;;;;;16.02;64.70;99782.83;219213;1265;140962;-79
2023/07/02 21:36:15;;;;;;;15.20;6.60;;;;;;;15.93;64.61;99783.64;220167;1266;138095;-80
2023/07/02 21:41:16;;;;;;;14.10;6.30;;;;;;;15.84;64.92;99791.83;219699;1266;140488;-80
2023/07/02 21:46:18;;;;;;;16.00;7.10;;;;;;;15.77;65.50;99793.48;220474;1266;98022;-80
2023/07/02 21:51:19;;;;;;;13.30;6.10;;;;;;;15.66;66.07;99794.89;219655;1266;142334;-80
2023/07/02 21:56:25;;;;;;;18.70;6.50;;;;;;;15.58;66.33;99802.65;219803;1265;137827;-80
2023/07/02 22:01:26;;;;;;;13.90;6.30;;;;;;;15.49;66.57;99804.02;219171;1268;139778;-80
2023/07/02 22:06:26;;;;;;;13.30;5.60;;;;;;;15.40;66.71;99806.10;219637;1266;138027;-80
2023/07/02 22:11:27;;;;;;;15.80;6.70;;;;;;;15.35;66.20;99812.03;219212;1264;140124;-80
2023/07/02 22:16:29;;;;;;;14.50;6.50;;;;;;;15.29;66.51;99812.92;219947;1266;98003;-80
2023/07/02 22:21:31;;;;;;;15.30;6.00;;;;;;;15.22;66.88;99818.98;219586;1264;140404;-81
2023/07/02 22:26:31;;;;;;;14.10;6.10;;;;;;;15.14;67.82;99822.92;219705;1268;137960;-81
2023/07/02 22:31:32;;;;;;;14.10;6.00;;;;;;;15.05;67.87;99821.25;219192;1269;141213;-80
2023/07/02 22:36:32;;;;;;;12.90;5.80;;;;;;;14.98;68.31;99819.80;219363;1270;296881;-81
2023/07/02 22:41:33;;;;;;;14.30;5.40;;;;;;;14.90;68.36;99819.92;219118;1270;139949;-81
2023/07/02 22:46:33;;;;;;;14.00;6.20;;;;;;;14.82;68.75;99820.61;220003;1266;138081;-81
2023/07/02 22:51:34;;;;;;;14.80;6.20;;;;;;;14.75;68.64;99815.97;219498;1266;141259;-82
2023/07/02 22:56:35;;;;;;;12.10;5.80;;;;;;;14.68;68.69;99817.58;219725;1266;137777;-81
2023/07/02 23:01:35;;;;;;;16.70;6.00;;;;;;;14.63;68.97;99815.44;219300;1266;139797;-81